Time;durP1;ratioP1;P1;durP2;ratioP2;P2;SDS_P1;SDS_P2;PMS_P1;PMS_P2;Temp;Humidity;BMP_temperature;BMP_pressure;BME280_temperature;BME280_humidity;BME280_pressure;Samples;Min_cycle;Max_cycle;Signal;HPM_P1;HPM_P2
2024/04/05 00:00:16;;;;;;;;;2.00;2.00;;;;;18.91;100.00;100522.59;2081262;28;46421;-67
2024/04/05 00:01:18;;;;;;;;;6.00;2.75;;;;;18.96;100.00;100518.69;2080435;28;46237;-65
2024/04/05 00:02:18;;;;;;;;;3.00;2.00;;;;;18.96;100.00;100515.16;2079753;28;46366;-68
2024/04/05 00:03:19;;;;;;;;;2.00;2.00;;;;;18.95;100.00;100516.09;2079136;28;46840;-67
2024/04/05 00:04:19;;;;;;;;;4.33;2.67;;;;;18.95;100.00;100516.97;2080479;28;46551;-66
2024/04/05 00:05:19;;;;;;;;;1.67;1.67;;;;;18.90;100.00;100510.97;2078088;28;46248;-65
2024/04/05 00:06:20;;;;;;;;;2.33;2.33;;;;;18.90;100.00;100508.28;2072849;28;46379;-66
2024/04/05 00:07:20;;;;;;;;;2.00;2.00;;;;;18.88;100.00;100504.84;2080268;28;46099;-66
2024/04/05 00:08:24;;;;;;;;;3.00;2.67;;;;;18.87;100.00;100500.41;2077249;28;46226;-68
2024/04/05 00:09:25;;;;;;;;;1.75;1.00;;;;;18.92;100.00;100492.94;2080202;28;46200;-67
2024/04/05 00:10:25;;;;;;;;;2.00;1.00;;;;;18.93;100.00;100496.47;2076716;28;46666;-66
2024/04/05 00:11:25;;;;;;;;;3.67;3.00;;;;;18.93;100.00;100499.16;2077478;28;45713;-68
2024/04/05 00:12:26;;;;;;;;;1.00;1.00;;;;;18.94;100.00;100499.09;2080700;28;46745;-67
2024/04/05 00:13:26;;;;;;;;;2.33;2.33;;;;;18.95;100.00;100503.53;2069694;28;46812;-68
2024/04/05 00:14:26;;;;;;;;;2.67;2.33;;;;;18.98;100.00;100507.84;2064487;28;46169;-66
2024/04/05 00:15:27;;;;;;;;;1.00;1.00;;;;;18.99;100.00;100501.50;2079683;28;46828;-66
2024/04/05 00:16:27;;;;;;;;;2.33;1.67;;;;;18.99;100.00;100498.81;2080174;28;46728;-66
2024/04/05 00:17:27;;;;;;;;;1.33;1.33;;;;;19.00;100.00;100500.53;2080236;28;46799;-67
2024/04/05 00:18:33;;;;;;;;;1.33;1.33;;;;;18.99;100.00;100499.69;2079355;28;46203;-65
2024/04/05 00:19:33;;;;;;;;;2.75;1.75;;;;;18.99;100.00;100496.13;2076354;28;46487;-69
2024/04/05 00:20:34;;;;;;;;;2.00;2.00;;;;;18.97;100.00;100493.53;2080397;28;46457;-68
2024/04/05 00:21:34;;;;;;;;;2.33;2.33;;;;;18.96;100.00;100490.94;2080292;28;45461;-68
2024/04/05 00:22:34;;;;;;;;;3.67;3.00;;;;;18.94;100.00;100485.66;2080296;28;46719;-67
2024/04/05 00:23:37;;;;;;;;;2.67;2.00;;;;;18.92;100.00;100490.25;2080924;28;46280;-66
2024/04/05 00:24:37;;;;;;;;;1.50;1.50;;;;;18.90;100.00;100484.09;2080580;28;46721;-68
2024/04/05 00:25:38;;;;;;;;;1.33;1.33;;;;;18.91;100.00;100485.81;2080036;28;46476;-70
2024/04/05 00:26:38;;;;;;;;;5.00;3.33;;;;;18.90;100.00;100484.09;2078587;28;46635;-67
2024/04/05 00:27:38;;;;;;;;;3.33;2.33;;;;;18.86;100.00;100481.69;2077756;28;46475;-66
2024/04/05 00:28:39;;;;;;;;;2.33;2.33;;;;;18.88;100.00;100474.38;2080029;28;46600;-66
2024/04/05 00:29:39;;;;;;;;;1.33;1.33;;;;;18.88;100.00;100471.69;2080508;28;47786;-66
2024/04/05 00:30:39;;;;;;;;;2.00;2.00;;;;;18.87;100.00;100470.84;2080287;28;47484;-67
2024/04/05 00:31:40;;;;;;;;;1.00;1.00;;;;;18.83;100.00;100477.38;2079491;28;46516;-67
2024/04/05 00:32:40;;;;;;;;;2.33;2.33;;;;;18.74;100.00;100468.00;2061387;28;46609;-67
2024/04/05 00:33:40;;;;;;;;;2.00;2.00;;;;;18.73;100.00;100473.50;2066744;28;46632;-65
2024/04/05 00:34:41;;;;;;;;;1.00;1.00;;;;;18.75;100.00;100472.44;2079799;28;46989;-67
2024/04/05 00:35:56;;;;;;;;;4.67;2.33;;;;;18.79;100.00;100457.84;2079699;28;46484;-66
2024/04/05 00:36:56;;;;;;;;;1.50;1.50;;;;;18.79;100.00;100451.59;2064693;28;46513;-67
2024/04/05 00:37:57;;;;;;;;;0.67;0.00;;;;;18.78;100.00;100453.41;2070857;28;46478;-68
2024/04/05 00:38:57;;;;;;;;;1.00;1.00;;;;;18.77;100.00;100457.06;2078236;28;46644;-67
2024/04/05 00:39:57;;;;;;;;;0.00;0.00;;;;;18.77;100.00;100449.00;2078969;28;46162;-67
2024/04/05 00:40:58;;;;;;;;;2.33;2.33;;;;;18.72;100.00;100448.44;2079817;28;46830;-68
2024/04/05 00:41:58;;;;;;;;;0.00;0.00;;;;;18.65;100.00;100443.50;2078092;28;46876;-68
2024/04/05 00:43:02;;;;;;;;;1.67;1.67;;;;;18.71;100.00;100454.75;2079162;28;46356;-68
2024/04/05 00:44:04;;;;;;;;;1.25;1.25;;;;;18.71;100.00;100446.69;2077915;28;47178;-69
2024/04/05 00:45:05;;;;;;;;;2.00;2.00;;;;;18.69;100.00;100450.44;2078880;28;46724;-64
2024/04/05 00:46:05;;;;;;;;;2.00;2.00;;;;;18.69;100.00;100447.75;2079038;28;45719;-67
2024/04/05 00:47:06;;;;;;;;;2.00;2.00;;;;;18.68;100.00;100441.50;2079717;28;46539;-67
2024/04/05 00:48:08;;;;;;;;;2.67;2.67;;;;;18.67;100.00;100436.19;2078029;28;46326;-66
2024/04/05 00:49:09;;;;;;;;;1.00;1.00;;;;;18.66;100.00;100440.72;2077071;28;46560;-66
2024/04/05 00:50:09;;;;;;;;;3.75;2.50;;;;;18.65;100.00;100432.75;2072697;28;46966;-67
2024/04/05 00:51:10;;;;;;;;;2.67;1.33;;;;;18.64;100.00;100426.50;2076894;28;46454;-66
2024/04/05 00:52:10;;;;;;;;;0.00;0.00;;;;;18.66;100.00;100431.78;2078884;28;46716;-66
2024/04/05 00:53:24;;;;;;;;;1.00;1.00;;;;;18.57;100.00;100417.06;2079936;28;46781;-66
2024/04/05 00:54:24;;;;;;;;;1.75;1.75;;;;;18.56;100.00;100428.78;2078754;28;46364;-66
2024/04/05 00:55:26;;;;;;;;;1.00;1.00;;;;;18.56;100.00;100427.91;2077935;28;46161;-66
2024/04/05 00:56:29;;;;;;;;;2.00;1.25;;;;;18.69;100.00;100434.31;2080255;28;46072;-68
2024/04/05 00:57:29;;;;;;;;;2.00;2.00;;;;;18.73;100.00;100423.28;2079652;28;46761;-66
2024/04/05 00:58:30;;;;;;;;;1.33;1.33;;;;;18.75;100.00;100431.25;2078782;28;46196;-68
2024/04/05 00:59:32;;;;;;;;;2.00;2.00;;;;;18.75;100.00;100429.41;2080585;28;46331;-66
2024/04/05 01:00:32;;;;;;;;;1.00;1.00;;;;;18.75;100.00;100424.03;2079794;28;46812;-67
2024/04/05 01:01:32;;;;;;;;;2.00;2.00;;;;;18.76;100.00;100431.16;2078376;28;46585;-66
2024/04/05 01:02:33;;;;;;;;;1.00;1.00;;;;;18.77;100.00;100430.19;2078456;28;45156;-68
2024/04/05 01:03:33;;;;;;;;;1.00;1.00;;;;;18.76;100.00;100423.09;2078367;28;46247;-67
2024/04/05 01:04:33;;;;;;;;;3.00;2.00;;;;;18.74;100.00;100422.31;2079780;28;46549;-65
2024/04/05 01:05:35;;;;;;;;;1.00;1.00;;;;;18.76;100.00;100416.84;2079276;28;46619;-66
2024/04/05 01:06:36;;;;;;;;;2.00;2.00;;;;;18.61;100.00;100417.72;2075800;28;47099;-66
2024/04/05 01:07:36;;;;;;;;;1.00;1.00;;;;;18.59;100.00;100415.16;2080329;28;46566;-67
2024/04/05 01:08:37;;;;;;;;;1.33;1.00;;;;;18.62;100.00;100414.09;2079555;28;46023;-66
2024/04/05 01:09:38;;;;;;;;;1.75;1.00;;;;;18.60;100.00;100414.19;2066240;28;46863;-66
2024/04/05 01:10:39;;;;;;;;;2.67;1.00;;;;;18.59;100.00;100411.59;2070795;28;46302;-67
2024/04/05 01:11:39;;;;;;;;;1.00;1.00;;;;;18.63;100.00;100408.63;2076687;28;46425;-68
2024/04/05 01:12:39;;;;;;;;;2.00;1.33;;;;;18.64;100.00;100398.75;2079973;28;45055;-67
2024/04/05 01:13:40;;;;;;;;;1.33;1.33;;;;;18.63;100.00;100397.00;2079979;28;46486;-67
2024/04/05 01:14:40;;;;;;;;;1.00;1.00;;;;;18.63;100.00;100403.25;2075315;28;46366;-68
2024/04/05 01:15:41;;;;;;;;;2.00;2.00;;;;;18.61;100.00;100398.91;2080419;28;46593;-68
2024/04/05 01:16:41;;;;;;;;;3.33;2.33;;;;;18.62;100.00;100397.97;2078259;28;46980;-67
2024/04/05 01:17:41;;;;;;;;;2.00;2.00;;;;;18.63;100.00;100397.00;2073469;28;46445;-66
2024/04/05 01:18:43;;;;;;;;;2.00;1.00;;;;;18.64;100.00;100398.75;2078008;28;46392;-67
2024/04/05 01:19:45;;;;;;;;;1.00;1.00;;;;;18.64;100.00;100398.75;2077524;28;46634;-66
2024/04/05 01:20:50;;;;;;;;;1.75;0.75;;;;;18.65;100.00;100393.28;2079877;28;46946;-66
2024/04/05 01:21:51;;;;;;;;;3.75;2.00;;;;;18.66;100.00;100400.41;2078924;28;46487;-67
2024/04/05 01:22:53;;;;;;;;;1.00;1.00;;;;;18.65;100.00;100392.44;2074025;28;46649;-68
2024/04/05 01:23:54;;;;;;;;;2.00;2.00;;;;;18.64;100.00;100394.25;2079569;28;46043;-67
2024/04/05 01:24:55;;;;;;;;;0.00;0.00;;;;;18.64;100.00;100388.88;2076064;28;47037;-67
2024/04/05 01:25:57;;;;;;;;;1.00;1.00;;;;;18.63;100.00;100384.44;2079542;28;45570;-66
2024/04/05 01:26:57;;;;;;;;;2.00;2.00;;;;;18.62;100.00;100387.22;2079078;28;46735;-66
2024/04/05 01:27:59;;;;;;;;;1.00;1.00;;;;;18.62;100.00;100389.91;2076654;28;45948;-68
2024/04/05 01:29:00;;;;;;;;;3.00;2.00;;;;;18.61;100.00;100393.53;2079289;28;46787;-70
2024/04/05 01:30:00;;;;;;;;;0.00;0.00;;;;;18.61;100.00;100397.09;2061749;28;45914;-68
2024/04/05 01:31:01;;;;;;;;;1.00;1.00;;;;;18.59;100.00;100396.34;2061510;28;46774;-67
2024/04/05 01:32:01;;;;;;;;;1.00;1.00;;;;;18.58;100.00;100391.91;2077271;28;46293;-65
2024/04/05 01:33:02;;;;;;;;;1.00;1.00;;;;;18.59;100.00;100390.09;2079704;28;46168;-67
2024/04/05 01:34:02;;;;;;;;;1.50;1.50;;;;;18.56;100.00;100396.53;2078754;28;46992;-66
2024/04/05 01:35:03;;;;;;;;;0.00;0.00;;;;;18.54;100.00;100396.59;2078999;28;46317;-65
2024/04/05 01:36:04;;;;;;;;;1.00;1.00;;;;;18.54;100.00;100393.03;2079391;28;45231;-66
2024/04/05 01:37:05;;;;;;;;;1.00;1.00;;;;;18.54;100.00;100395.72;2078192;28;46984;-66
2024/04/05 01:38:05;;;;;;;;;1.75;1.75;;;;;18.52;100.00;100401.19;2079437;28;46253;-67
2024/04/05 01:39:06;;;;;;;;;1.00;1.00;;;;;18.48;100.00;100391.59;2080152;28;46403;-66
2024/04/05 01:40:06;;;;;;;;;1.00;0.00;;;;;18.47;100.00;100392.56;2054073;28;46875;-65
2024/04/05 01:41:06;;;;;;;;;0.33;0.33;;;;;18.45;100.00;100391.78;2054341;28;46225;-67
2024/04/05 01:42:07;;;;;;;;;1.00;1.00;;;;;18.44;100.00;100390.06;2069802;28;47642;-66
2024/04/05 01:43:07;;;;;;;;;1.67;1.00;;;;;18.43;100.00;100395.53;2071489;28;46695;-66
2024/04/05 01:44:07;;;;;;;;;0.00;0.00;;;;;18.42;100.00;100408.09;2076753;28;47102;-66
2024/04/05 01:45:08;;;;;;;;;2.00;2.00;;;;;18.42;100.00;100408.09;2075393;28;46529;-65
2024/04/05 01:46:08;;;;;;;;;0.00;0.00;;;;;18.41;100.00;100409.03;2077632;28;46199;-67
2024/04/05 01:47:10;;;;;;;;;1.00;1.00;;;;;18.39;100.00;100405.56;2074036;28;46364;-69
2024/04/05 01:48:10;;;;;;;;;2.25;1.75;;;;;18.38;100.00;100409.22;2079723;28;46662;-68
2024/04/05 01:49:10;;;;;;;;;2.00;2.00;;;;;18.39;100.00;100407.38;2077971;28;46196;-66
2024/04/05 01:50:13;;;;;;;;;1.67;1.67;;;;;18.39;100.00;100400.19;2078281;28;46624;-68
2024/04/05 01:51:14;;;;;;;;;2.75;2.75;;;;;18.39;100.00;100410.06;2079571;28;46837;-67
2024/04/05 01:52:14;;;;;;;;;2.00;2.00;;;;;18.38;100.00;100400.28;2076187;28;46640;-69
2024/04/05 01:53:14;;;;;;;;;2.67;2.00;;;;;18.36;100.00;100389.63;2079642;28;45633;-66
2024/04/05 01:54:14;;;;;;;;;3.00;1.33;;;;;18.36;100.00;100391.44;2079290;28;46323;-66
2024/04/05 01:55:15;;;;;;;;;2.00;2.00;;;;;18.34;100.00;100390.69;2076738;28;46672;-67
2024/04/05 01:56:15;;;;;;;;;5.00;5.00;;;;;18.34;100.00;100394.25;2080002;28;45329;-66
2024/04/05 01:57:15;;;;;;;;;4.33;3.33;;;;;18.33;100.00;100387.13;2077291;28;46242;-68
2024/04/05 01:58:16;;;;;;;;;4.00;3.67;;;;;18.29;100.00;100374.81;2078248;28;46443;-67
2024/04/05 01:59:16;;;;;;;;;6.00;6.00;;;;;18.30;100.00;100373.88;2079259;28;46449;-65
2024/04/05 02:00:17;;;;;;;;;4.00;3.67;;;;;18.32;100.00;100368.41;2075988;28;46485;-67
2024/04/05 02:01:17;;;;;;;;;1.00;1.00;;;;;18.31;100.00;100370.25;2079649;28;46477;-69
2024/04/05 02:02:18;;;;;;;;;0.33;0.33;;;;;18.29;100.00;100363.22;2079304;28;46471;-66
2024/04/05 02:03:18;;;;;;;;;2.00;2.00;;;;;18.27;100.00;100366.00;2077877;28;46522;-66
2024/04/05 02:04:18;;;;;;;;;1.00;1.00;;;;;18.26;100.00;100364.25;2079801;28;45433;-66
2024/04/05 02:05:19;;;;;;;;;2.00;2.00;;;;;18.24;100.00;100367.03;2078792;28;46780;-67
2024/04/05 02:06:19;;;;;;;;;3.33;2.00;;;;;18.24;100.00;100358.97;2061241;28;46831;-66
2024/04/05 02:07:20;;;;;;;;;2.00;2.00;;;;;18.24;100.00;100358.13;2061487;28;46547;-68
2024/04/05 02:08:21;;;;;;;;;0.75;0.75;;;;;18.24;100.00;100355.44;2079891;28;45674;-66
2024/04/05 02:09:21;;;;;;;;;1.00;0.67;;;;;18.24;100.00;100350.06;2077362;28;46526;-67
2024/04/05 02:10:21;;;;;;;;;2.00;2.00;;;;;18.24;100.00;100348.25;2079042;28;46112;-66
2024/04/05 02:11:22;;;;;;;;;1.33;1.33;;;;;18.26;100.00;100341.91;2077927;28;46809;-67
2024/04/05 02:12:23;;;;;;;;;1.00;1.00;;;;;18.27;100.00;100343.63;2076931;28;47569;-66
2024/04/05 02:13:24;;;;;;;;;1.00;1.00;;;;;18.24;100.00;100342.00;2077501;28;45986;-67
2024/04/05 02:14:25;;;;;;;;;1.00;1.00;;;;;18.26;100.00;100349.97;2079943;28;47080;-69
2024/04/05 02:15:25;;;;;;;;;1.25;1.00;;;;;18.26;100.00;100349.97;2078327;28;46337;-67
2024/04/05 02:16:26;;;;;;;;;1.00;1.00;;;;;18.27;100.00;100357.06;2079202;28;46418;-67
2024/04/05 02:17:26;;;;;;;;;1.33;1.33;;;;;18.24;100.00;100352.75;2079468;28;46183;-67
2024/04/05 02:18:26;;;;;;;;;2.00;2.00;;;;;18.22;100.00;100347.47;2079459;28;46236;-67
2024/04/05 02:19:27;;;;;;;;;1.33;1.33;;;;;18.20;100.00;100352.06;2079853;28;45378;-66
2024/04/05 02:20:27;;;;;;;;;3.00;1.00;;;;;18.21;100.00;100342.19;2079726;28;46612;-67
2024/04/05 02:21:28;;;;;;;;;2.00;0.00;;;;;18.22;100.00;100339.41;2078238;28;45521;-67
2024/04/05 02:22:28;;;;;;;;;2.00;0.67;;;;;18.22;100.00;100349.28;2079453;28;46717;-66
2024/04/05 02:23:28;;;;;;;;;1.67;1.00;;;;;18.22;100.00;100347.47;2079015;28;46999;-67
2024/04/05 02:24:28;;;;;;;;;0.67;0.67;;;;;18.21;100.00;100345.75;2079145;28;47145;-65
2024/04/05 02:25:29;;;;;;;;;0.00;0.00;;;;;18.21;100.00;100345.75;2076489;28;47353;-67
2024/04/05 02:26:29;;;;;;;;;1.33;1.33;;;;;18.23;100.00;100342.97;2077932;28;45685;-65
2024/04/05 02:27:29;;;;;;;;;1.00;1.00;;;;;18.24;100.00;100331.25;2077194;28;46347;-66
2024/04/05 02:28:30;;;;;;;;;0.00;0.00;;;;;18.24;100.00;100342.00;2077482;28;46856;-68
2024/04/05 02:29:31;;;;;;;;;1.00;1.00;;;;;18.23;100.00;100335.75;2076070;28;46696;-66
2024/04/05 02:30:31;;;;;;;;;1.50;1.50;;;;;18.22;100.00;100342.09;2071323;28;46910;-67
2024/04/05 02:31:31;;;;;;;;;3.67;0.00;;;;;18.24;100.00;100340.19;2078381;28;46269;-66
2024/04/05 02:32:32;;;;;;;;;4.00;4.00;;;;;18.24;100.00;100336.63;2078882;28;46254;-64
2024/04/05 02:33:32;;;;;;;;;5.00;5.00;;;;;18.25;100.00;100338.34;2079411;28;45012;-66
2024/04/05 02:34:32;;;;;;;;;3.00;2.00;;;;;18.26;100.00;100336.53;2079329;28;46535;-65
2024/04/05 02:35:33;;;;;;;;;2.67;1.67;;;;;18.25;100.00;100330.31;2075545;28;44998;-66
2024/04/05 02:36:33;;;;;;;;;2.00;2.00;;;;;18.26;100.00;100341.91;2055674;28;46681;-67
2024/04/05 02:37:33;;;;;;;;;3.00;1.00;;;;;18.24;100.00;100334.81;2053907;28;46024;-68
2024/04/05 02:38:34;;;;;;;;;3.00;3.00;;;;;18.25;100.00;100335.69;2076476;28;46725;-67
2024/04/05 02:39:34;;;;;;;;;6.00;6.00;;;;;18.27;100.00;100336.44;2079107;28;46694;-66
2024/04/05 02:40:34;;;;;;;;;4.00;3.00;;;;;18.26;100.00;100334.72;2079043;28;46206;-66
2024/04/05 02:41:35;;;;;;;;;4.00;3.33;;;;;18.28;100.00;100332.78;2078862;28;46184;-66
2024/04/05 02:42:35;;;;;;;;;2.33;2.33;;;;;18.27;100.00;100325.69;2053835;28;46403;-66
2024/04/05 02:43:35;;;;;;;;;2.00;2.00;;;;;18.28;100.00;100329.25;2045930;28;46801;-65
2024/04/05 02:44:35;;;;;;;;;1.33;0.67;;;;;18.29;100.00;100326.47;2068407;28;46588;-67
2024/04/05 02:45:36;;;;;;;;;1.00;1.00;;;;;18.29;100.00;100326.47;2075548;28;46569;-66
2024/04/05 02:46:36;;;;;;;;;2.00;1.00;;;;;18.29;100.00;100331.84;2078973;28;46859;-67
2024/04/05 02:47:36;;;;;;;;;1.33;1.33;;;;;18.29;100.00;100331.84;2078179;28;46457;-67
2024/04/05 02:48:37;;;;;;;;;1.00;1.00;;;;;18.28;100.00;100324.75;2079556;28;46669;-68
2024/04/05 02:49:37;;;;;;;;;1.00;1.00;;;;;18.28;100.00;100316.69;2078679;28;46426;-68
2024/04/05 02:50:38;;;;;;;;;1.00;1.00;;;;;18.27;100.00;100316.78;2075373;28;46612;-65
2024/04/05 02:51:38;;;;;;;;;4.33;1.00;;;;;18.28;100.00;100307.75;2079482;28;46548;-69
2024/04/05 02:52:38;;;;;;;;;2.00;2.00;;;;;18.29;100.00;100302.28;2078532;28;46791;-66
2024/04/05 02:53:38;;;;;;;;;1.00;1.00;;;;;18.31;100.00;100305.78;2079552;28;46494;-66
2024/04/05 02:54:39;;;;;;;;;1.00;1.00;;;;;18.30;100.00;100303.19;2079269;28;46269;-68
2024/04/05 02:55:39;;;;;;;;;1.00;1.00;;;;;18.29;100.00;100304.97;2079017;28;46522;-66
2024/04/05 02:56:40;;;;;;;;;1.00;1.00;;;;;18.30;100.00;100298.69;2078529;28;45363;-66
2024/04/05 02:57:40;;;;;;;;;1.33;1.33;;;;;18.31;100.00;100291.47;2078705;28;45122;-66
2024/04/05 02:58:40;;;;;;;;;2.00;2.00;;;;;18.32;100.00;100288.69;2073968;28;46228;-66
2024/04/05 02:59:40;;;;;;;;;1.33;1.00;;;;;18.31;100.00;100289.66;2078013;28;46646;-66
2024/04/05 03:00:42;;;;;;;;;2.00;1.00;;;;;18.34;100.00;100280.53;2076864;28;45586;-66
2024/04/05 03:01:42;;;;;;;;;1.50;1.50;;;;;18.37;100.00;100289.28;2078719;28;46309;-66
2024/04/05 03:02:43;;;;;;;;;1.00;1.00;;;;;18.38;100.00;100276.69;2079146;28;46477;-66
2024/04/05 03:03:46;;;;;;;;;2.00;1.00;;;;;18.39;100.00;100278.44;2079380;28;46170;-65
2024/04/05 03:04:46;;;;;;;;;1.00;1.00;;;;;18.35;100.00;100272.38;2078662;28;46926;-67
2024/04/05 03:05:47;;;;;;;;;3.67;2.00;;;;;18.37;100.00;100281.22;2077615;28;46648;-67
2024/04/05 03:06:48;;;;;;;;;1.00;1.00;;;;;18.35;100.00;100275.06;2075175;28;46967;-65
2024/04/05 03:07:50;;;;;;;;;2.00;2.00;;;;;18.37;100.00;100274.97;2079026;28;46709;-66
2024/04/05 03:08:50;;;;;;;;;1.00;0.75;;;;;18.38;100.00;100279.38;2078403;28;46681;-68
2024/04/05 03:09:50;;;;;;;;;1.00;1.00;;;;;18.37;100.00;100274.97;2079428;28;46693;-68
2024/04/05 03:10:51;;;;;;;;;1.00;1.00;;;;;18.37;100.00;100277.66;2080116;28;46273;-70
2024/04/05 03:11:51;;;;;;;;;1.67;1.00;;;;;18.31;100.00;100272.69;2080312;28;46429;-69
2024/04/05 03:12:52;;;;;;;;;1.00;1.00;;;;;18.37;100.00;100273.16;2080543;28;46772;-67
2024/04/05 03:13:53;;;;;;;;;1.50;1.50;;;;;18.37;100.00;100272.28;2080289;28;46897;-69
2024/04/05 03:14:53;;;;;;;;;1.67;1.00;;;;;18.39;100.00;100273.06;2081075;28;45852;-69
2024/04/05 03:15:53;;;;;;;;;2.00;2.00;;;;;18.39;100.00;100265.00;2080460;28;45439;-68
2024/04/05 03:16:53;;;;;;;;;0.00;0.00;;;;;18.39;100.00;100268.53;2079048;28;46482;-67
2024/04/05 03:17:54;;;;;;;;;0.67;0.67;;;;;18.39;100.00;100259.63;2071246;28;46780;-68
2024/04/05 03:18:54;;;;;;;;;1.00;1.00;;;;;18.39;100.00;100257.78;2070309;28;46359;-67
2024/04/05 03:19:54;;;;;;;;;2.33;1.00;;;;;18.41;100.00;100255.00;2076727;28;46519;-67
2024/04/05 03:20:55;;;;;;;;;1.00;1.00;;;;;18.42;100.00;100254.06;2081066;28;46008;-67
2024/04/05 03:21:55;;;;;;;;;1.67;1.67;;;;;18.41;100.00;100250.50;2080564;28;46177;-68
2024/04/05 03:22:56;;;;;;;;;0.00;0.00;;;;;18.41;100.00;100253.19;2080386;28;46467;-67
2024/04/05 03:23:56;;;;;;;;;0.00;0.00;;;;;18.42;100.00;100246.00;2080183;28;46422;-67
2024/04/05 03:24:56;;;;;;;;;4.67;0.33;;;;;18.42;100.00;100237.94;2077974;28;46376;-66
2024/04/05 03:25:57;;;;;;;;;1.33;1.33;;;;;18.42;100.00;100246.00;2077495;28;46747;-67
2024/04/05 03:26:57;;;;;;;;;1.00;1.00;;;;;18.43;100.00;100235.19;2079523;28;46485;-67
2024/04/05 03:27:58;;;;;;;;;1.00;1.00;;;;;18.42;100.00;100237.94;2076335;28;46693;-69
2024/04/05 03:28:58;;;;;;;;;2.33;1.00;;;;;18.41;100.00;100228.16;2079960;28;46794;-66
2024/04/05 03:29:58;;;;;;;;;1.00;1.00;;;;;18.38;100.00;100229.22;2080739;28;46026;-67
2024/04/05 03:31:02;;;;;;;;;2.33;1.67;;;;;18.38;100.00;100228.34;2080609;28;45480;-66
2024/04/05 03:32:04;;;;;;;;;2.50;1.00;;;;;18.36;100.00;100225.75;2066326;28;46756;-66
2024/04/05 03:33:04;;;;;;;;;2.50;1.00;;;;;18.34;100.00;100226.81;2071802;28;46399;-67
2024/04/05 03:34:04;;;;;;;;;1.00;1.00;;;;;18.35;100.00;100223.16;2079734;28;47059;-68
2024/04/05 03:35:06;;;;;;;;;0.00;0.00;;;;;18.33;100.00;100219.72;2078955;28;46289;-66
2024/04/05 03:36:07;;;;;;;;;1.00;1.00;;;;;18.31;100.00;100219.81;2079190;28;46298;-67
2024/04/05 03:37:07;;;;;;;;;0.67;0.67;;;;;18.30;100.00;100220.78;2081024;28;46763;-67
2024/04/05 03:38:07;;;;;;;;;2.33;2.00;;;;;18.30;100.00;100204.66;2080408;28;46372;-68
2024/04/05 03:39:08;;;;;;;;;2.00;0.00;;;;;18.28;100.00;100221.81;2080762;28;46256;-68
2024/04/05 03:40:11;;;;;;;;;1.33;1.33;;;;;18.29;100.00;100200.22;2063243;28;46202;-69
2024/04/05 03:41:11;;;;;;;;;0.00;0.00;;;;;18.32;100.00;100201.88;2063820;28;46336;-67
2024/04/05 03:42:11;;;;;;;;;0.33;0.33;;;;;18.30;100.00;100207.34;2079932;28;44993;-66
2024/04/05 03:43:12;;;;;;;;;1.00;1.00;;;;;18.28;100.00;100213.75;2081009;28;45185;-67
2024/04/05 03:44:12;;;;;;;;;2.00;2.00;;;;;18.24;100.00;100224.69;2077389;28;45221;-68
2024/04/05 03:45:12;;;;;;;;;1.00;1.00;;;;;18.25;100.00;100201.38;2077299;28;46328;-68
2024/04/05 03:46:13;;;;;;;;;2.00;1.00;;;;;18.23;100.00;100196.09;2080340;28;45624;-67
2024/04/05 03:47:13;;;;;;;;;1.00;1.00;;;;;18.22;100.00;100197.06;2079426;28;46572;-67
2024/04/05 03:48:13;;;;;;;;;2.00;1.00;;;;;18.22;100.00;100201.56;2079479;28;46737;-68
2024/04/05 03:49:14;;;;;;;;;0.67;0.67;;;;;18.21;100.00;100206.06;2078921;28;46346;-68
2024/04/05 03:50:14;;;;;;;;;2.00;2.00;;;;;18.22;100.00;100204.25;2079422;28;46632;-68
2024/04/05 03:51:14;;;;;;;;;2.00;2.00;;;;;18.21;100.00;100202.53;2080874;28;45078;-68
2024/04/05 03:52:15;;;;;;;;;1.00;1.00;;;;;18.20;100.00;100198.97;2080083;28;46390;-67
2024/04/05 03:53:16;;;;;;;;;0.00;0.00;;;;;18.21;100.00;100197.16;2074102;28;47369;-67
2024/04/05 03:54:16;;;;;;;;;1.00;1.00;;;;;18.20;100.00;100190.06;2080615;28;45851;-70
2024/04/05 03:55:16;;;;;;;;;3.00;1.00;;;;;18.21;100.00;100189.09;2071599;28;46227;-68
2024/04/05 03:56:17;;;;;;;;;1.00;1.00;;;;;18.21;100.00;100192.66;2072818;28;45688;-68
2024/04/05 03:57:17;;;;;;;;;1.00;1.00;;;;;18.19;100.00;100189.19;2079950;28;46307;-67
2024/04/05 03:58:17;;;;;;;;;1.00;1.00;;;;;18.19;100.00;100183.81;2076926;28;45938;-68
2024/04/05 03:59:17;;;;;;;;;0.33;0.33;;;;;18.20;100.00;100185.56;2078709;28;46705;-67
2024/04/05 04:00:19;;;;;;;;;1.00;1.00;;;;;18.20;100.00;100182.88;2080179;28;45864;-67
2024/04/05 04:01:19;;;;;;;;;2.25;0.25;;;;;18.18;100.00;100174.03;2079455;28;46429;-67
2024/04/05 04:02:19;;;;;;;;;1.00;1.00;;;;;18.17;100.00;100180.38;2078570;28;46023;-66
2024/04/05 04:03:20;;;;;;;;;0.00;0.00;;;;;18.18;100.00;100176.72;2078526;28;46567;-67
2024/04/05 04:04:24;;;;;;;;;1.00;1.00;;;;;18.18;100.00;100179.41;2080575;28;46329;-66
2024/04/05 04:05:25;;;;;;;;;0.25;0.25;;;;;18.20;100.00;100180.19;2080374;28;45969;-67
2024/04/05 04:06:25;;;;;;;;;1.00;1.00;;;;;18.20;100.00;100166.75;2080504;28;46704;-67
2024/04/05 04:07:26;;;;;;;;;1.67;1.67;;;;;18.23;100.00;100171.06;2079762;28;46131;-67
2024/04/05 04:08:26;;;;;;;;;0.00;0.00;;;;;18.22;100.00;100169.34;2076978;28;46405;-66
2024/04/05 04:09:26;;;;;;;;;0.33;0.33;;;;;18.22;100.00;100167.50;2080383;28;46840;-67
2024/04/05 04:10:28;;;;;;;;;2.00;1.00;;;;;18.22;100.00;100162.16;2078537;28;46573;-67
2024/04/05 04:11:28;;;;;;;;;1.00;1.00;;;;;18.22;100.00;100166.66;2079390;28;47365;-66
2024/04/05 04:12:29;;;;;;;;;0.00;0.00;;;;;18.21;100.00;100157.72;2079055;28;45511;-68
2024/04/05 04:13:29;;;;;;;;;0.00;0.00;;;;;18.21;100.00;100163.09;2080431;28;46249;-67
2024/04/05 04:14:29;;;;;;;;;0.33;0.33;;;;;18.22;100.00;100170.19;2080057;28;46265;-66
2024/04/05 04:15:30;;;;;;;;;0.67;0.67;;;;;18.23;100.00;100155.81;2077205;28;46191;-67
2024/04/05 04:16:31;;;;;;;;;2.00;1.00;;;;;18.21;100.00;100156.88;2077902;28;46434;-67
2024/04/05 04:17:31;;;;;;;;;0.00;0.00;;;;;18.23;100.00;100154.94;2072072;28;45861;-66
2024/04/05 04:18:32;;;;;;;;;1.67;0.33;;;;;18.23;100.00;100154.94;2068202;28;46364;-66
2024/04/05 04:19:32;;;;;;;;;0.00;0.00;;;;;18.24;100.00;100151.31;2078636;28;47358;-67
2024/04/05 04:20:32;;;;;;;;;1.00;1.00;;;;;18.22;100.00;100156.78;2078962;28;46636;-66
2024/04/05 04:21:33;;;;;;;;;1.67;1.67;;;;;18.18;100.00;100143.66;2080597;28;46608;-67
2024/04/05 04:22:34;;;;;;;;;0.00;0.00;;;;;18.20;100.00;100153.31;2078335;28;46642;-67
2024/04/05 04:23:34;;;;;;;;;0.00;0.00;;;;;18.20;100.00;100147.94;2075484;28;45910;-67
2024/04/05 04:24:34;;;;;;;;;0.00;0.00;;;;;18.18;100.00;100139.13;2078532;28;46876;-67
2024/04/05 04:25:35;;;;;;;;;0.67;0.67;;;;;18.19;100.00;100138.16;2079503;28;46791;-66
2024/04/05 04:26:36;;;;;;;;;1.00;1.00;;;;;18.19;100.00;100143.53;2079802;28;45606;-66
2024/04/05 04:27:36;;;;;;;;;1.00;1.00;;;;;18.20;100.00;100136.34;2078941;28;46646;-66
2024/04/05 04:28:36;;;;;;;;;0.67;0.67;;;;;18.15;100.00;100143.81;2079490;28;46314;-66
2024/04/05 04:29:37;;;;;;;;;1.00;1.00;;;;;18.12;100.00;100139.50;2080147;28;46658;-66
2024/04/05 04:30:37;;;;;;;;;1.00;1.00;;;;;18.18;100.00;100146.31;2078251;28;46652;-65
2024/04/05 04:31:39;;;;;;;;;1.00;1.00;;;;;18.19;100.00;100140.00;2077019;28;47715;-64
2024/04/05 04:32:40;;;;;;;;;1.50;1.00;;;;;18.19;100.00;100140.00;2062094;28;46744;-66
2024/04/05 04:33:40;;;;;;;;;1.00;1.00;;;;;18.19;100.00;100138.16;2063537;28;46071;-66
2024/04/05 04:34:41;;;;;;;;;0.33;0.33;;;;;18.20;100.00;100134.53;2076116;28;45644;-65
2024/04/05 04:35:45;;;;;;;;;1.00;1.00;;;;;18.20;100.00;100137.22;2078854;28;46601;-65
2024/04/05 04:36:46;;;;;;;;;1.00;1.00;;;;;18.21;100.00;100130.00;2075844;28;46180;-66
2024/04/05 04:37:46;;;;;;;;;1.00;1.00;;;;;18.18;100.00;100124.84;2080346;28;45539;-65
2024/04/05 04:38:47;;;;;;;;;1.00;1.00;;;;;18.23;100.00;100115.53;2077237;28;46287;-66